createdAt,value
2023-04-08T00:00:38.692Z,85.16
2023-04-08T00:06:02.585Z,85.38
2023-04-08T00:11:24.301Z,85.20
2023-04-08T00:16:46.048Z,84.84
2023-04-08T00:22:08.237Z,85.82
2023-04-08T00:27:29.908Z,84.89
2023-04-08T00:32:51.699Z,84.40
2023-04-08T00:38:13.458Z,84.66
2023-04-08T00:43:35.176Z,84.65
2023-04-08T00:48:57.045Z,85.13
2023-04-08T00:54:18.781Z,85.88
2023-04-08T00:59:41.568Z,85.33
2023-04-08T01:05:23.543Z,85.08
2023-04-08T01:10:51.012Z,84.92
2023-04-08T01:16:15.754Z,84.75
2023-04-08T01:21:38.801Z,84.82
2023-04-08T01:27:01.866Z,84.68
2023-04-08T01:32:24.978Z,84.94
2023-04-08T01:37:50.114Z,85.50
2023-04-08T01:43:16.302Z,85.77
2023-04-08T01:48:40.236Z,84.58
2023-04-08T01:54:01.983Z,84.31
2023-04-08T01:59:28.772Z,85.01
2023-04-08T02:04:50.640Z,84.68
2023-04-08T02:10:12.373Z,86.04
2023-04-08T02:15:36.399Z,85.33
2023-04-08T02:21:22.153Z,85.81
2023-04-08T02:26:45.599Z,85.42
2023-04-08T02:32:10.831Z,85.36
2023-04-08T02:37:33.249Z,86.26
2023-04-08T02:42:55.767Z,86.17
2023-04-08T02:48:17.480Z,86.14
2023-04-08T02:53:39.191Z,86.20
2023-04-08T02:59:00.936Z,86.25
2023-04-08T03:04:22.642Z,85.29
2023-04-08T03:09:44.383Z,85.69
2023-04-08T03:15:06.596Z,86.31
2023-04-08T03:20:28.326Z,85.84
2023-04-08T03:25:50.024Z,85.16
2023-04-08T03:31:11.767Z,84.81
2023-04-08T03:36:33.475Z,85.13
2023-04-08T03:41:55.294Z,84.50
2023-04-08T03:47:16.994Z,85.51
2023-04-08T03:52:38.695Z,84.88
2023-04-08T03:58:00.382Z,84.79
2023-04-08T04:03:22.213Z,85.08
2023-04-08T04:08:44.008Z,85.03
2023-04-08T04:14:05.732Z,84.93
2023-04-08T04:19:31.280Z,84.83
2023-04-08T04:24:52.998Z,84.52
2023-04-08T04:30:15.762Z,84.65
2023-04-08T04:35:39.634Z,85.55
2023-04-08T04:41:01.620Z,85.85
2023-04-08T04:46:23.441Z,86.14
2023-04-08T04:51:45.223Z,86.17
2023-04-08T04:57:07.328Z,85.96
2023-04-08T05:02:29.148Z,86.01
2023-04-08T05:07:51.154Z,88.09
2023-04-08T05:13:13.031Z,89.46
2023-04-08T05:18:34.770Z,88.54
2023-04-08T05:23:56.501Z,89.41
2023-04-08T05:29:18.692Z,90.99
2023-04-08T05:34:40.572Z,91.15
2023-04-08T05:40:02.352Z,90.19
2023-04-08T05:45:24.047Z,89.30
2023-04-08T05:50:48.233Z,88.12
2023-04-08T05:56:10.125Z,89.00
2023-04-08T06:01:32.014Z,88.81
2023-04-08T06:06:53.820Z,87.48
2023-04-08T06:12:15.592Z,87.72
2023-04-08T06:17:38.207Z,88.49
2023-04-08T06:23:00.049Z,87.60
2023-04-08T06:28:21.779Z,87.89
2023-04-08T06:33:43.566Z,86.92
2023-04-08T06:39:05.532Z,87.88
2023-04-08T06:44:27.221Z,87.08
2023-04-08T06:49:48.917Z,87.42
2023-04-08T06:55:10.728Z,86.89
2023-04-08T07:00:32.606Z,87.12
2023-04-08T07:05:54.374Z,86.55
2023-04-08T07:11:16.230Z,86.05
2023-04-08T07:16:38.092Z,84.91
2023-04-08T07:21:59.829Z,84.93
2023-04-08T07:27:21.536Z,85.52
2023-04-08T07:32:43.281Z,84.80
2023-04-08T07:38:09.315Z,84.11
2023-04-08T07:43:31.896Z,82.44
2023-04-08T07:48:53.621Z,82.56
2023-04-08T07:54:17.356Z,81.53
2023-04-08T07:59:39.185Z,80.66
2023-04-08T08:05:01.545Z,81.28
2023-04-08T08:10:23.339Z,80.22
2023-04-08T08:15:45.381Z,79.17
2023-04-08T08:21:07.948Z,78.32
2023-04-08T08:26:29.784Z,77.62
2023-04-08T08:31:51.518Z,77.51
2023-04-08T08:37:13.276Z,77.96
2023-04-08T08:42:35.040Z,77.14
2023-04-08T08:47:57.686Z,75.78
2023-04-08T08:53:23.229Z,75.41
2023-04-08T08:58:45.017Z,74.64
2023-04-08T09:04:16.746Z,72.61
2023-04-08T09:09:49.282Z,71.25
2023-04-08T09:15:11.068Z,71.25
2023-04-08T09:20:32.953Z,67.80
2023-04-08T09:26:06.915Z,67.60
2023-04-08T09:31:31.794Z,66.46
2023-04-08T09:36:54.701Z,65.85
2023-04-08T09:42:19.959Z,64.80
2023-04-08T09:47:55.690Z,61.83
2023-04-08T09:53:21.546Z,58.31
2023-04-08T09:59:02.621Z,60.10
2023-04-08T10:04:26.594Z,59.23
2023-04-08T10:09:49.379Z,58.62
2023-04-08T10:15:36.046Z,58.07
2023-04-08T10:20:57.753Z,55.07
2023-04-08T10:26:33.560Z,56.22
2023-04-08T10:31:57.372Z,54.96
2023-04-08T10:37:19.252Z,54.96
2023-04-08T10:42:40.917Z,55.45
2023-04-08T10:48:25.131Z,53.91
2023-04-08T10:53:46.928Z,54.10
2023-04-08T10:59:08.613Z,55.06
2023-04-08T11:04:30.435Z,52.42
2023-04-08T11:09:52.232Z,51.17
2023-04-08T11:15:14.496Z,51.84
2023-04-08T11:20:37.039Z,52.58
2023-04-08T11:25:58.794Z,52.11
2023-04-08T11:31:24.545Z,52.07
2023-04-08T11:36:47.111Z,51.50
2023-04-08T11:42:08.849Z,52.26
2023-04-08T11:47:34.253Z,52.31
2023-04-08T11:52:56.983Z,52.81
2023-04-08T11:58:18.706Z,53.26
2023-04-08T12:03:54.582Z,52.91
2023-04-08T12:09:16.990Z,52.52
2023-04-08T12:14:38.707Z,55.33
2023-04-08T12:20:00.960Z,55.00
2023-04-08T12:25:22.694Z,54.63
2023-04-08T12:30:44.392Z,55.04
2023-04-08T12:36:06.159Z,53.43
2023-04-08T12:41:27.884Z,53.29
2023-04-08T12:46:49.581Z,53.73
2023-04-08T12:52:11.293Z,53.86
2023-04-08T12:57:32.964Z,53.63
2023-04-08T13:02:54.825Z,54.18
2023-04-08T13:08:17.499Z,54.15
2023-04-08T13:13:40.054Z,55.03
2023-04-08T13:19:01.748Z,54.73
2023-04-08T13:24:23.661Z,55.10
2023-04-08T13:29:45.329Z,55.38
2023-04-08T13:35:07.432Z,55.65
2023-04-08T13:40:29.158Z,55.63
2023-04-08T13:45:50.903Z,56.04
2023-04-08T13:51:12.704Z,55.82
2023-04-08T13:56:34.441Z,56.73
2023-04-08T14:01:56.212Z,56.82
2023-04-08T14:07:19.000Z,56.49
2023-04-08T14:12:40.841Z,55.78
2023-04-08T14:18:02.578Z,56.39
2023-04-08T14:23:24.324Z,56.03
2023-04-08T14:28:47.506Z,55.26
2023-04-08T14:34:09.227Z,56.43
2023-04-08T14:39:30.892Z,55.95
2023-04-08T14:44:52.561Z,56.05
2023-04-08T14:50:14.240Z,56.09
2023-04-08T14:55:35.994Z,55.75
2023-04-08T15:00:57.685Z,55.27
2023-04-08T15:06:21.647Z,54.25
2023-04-08T15:11:43.327Z,54.13
2023-04-08T15:17:05.079Z,54.74
2023-04-08T15:22:27.028Z,54.30
2023-04-08T15:27:48.768Z,54.63
2023-04-08T15:33:10.573Z,54.30
2023-04-08T15:38:33.642Z,55.67
2023-04-08T15:43:55.608Z,55.96
2023-04-08T15:49:17.306Z,56.47
2023-04-08T15:54:39.005Z,56.53
2023-04-08T16:00:01.023Z,57.24
2023-04-08T16:05:22.866Z,57.64
2023-04-08T16:10:44.557Z,57.78
2023-04-08T16:16:06.390Z,57.72
2023-04-08T16:21:28.808Z,57.67
2023-04-08T16:26:50.505Z,57.60
2023-04-08T16:32:12.256Z,57.90
2023-04-08T16:37:34.637Z,58.88
2023-04-08T16:42:56.479Z,58.75
2023-04-08T16:48:18.632Z,59.67
2023-04-08T16:53:40.985Z,60.01
2023-04-08T16:59:03.216Z,59.80
2023-04-08T17:04:24.945Z,60.06
2023-04-08T17:09:51.355Z,60.39
2023-04-08T17:15:13.094Z,61.03
2023-04-08T17:20:34.833Z,61.64
2023-04-08T17:25:56.961Z,61.25
2023-04-08T17:31:18.717Z,61.85
2023-04-08T17:36:40.626Z,61.33
2023-04-08T17:42:02.491Z,62.32
2023-04-08T17:47:24.216Z,62.10
2023-04-08T17:52:48.886Z,62.33
2023-04-08T17:58:10.620Z,62.43
2023-04-08T18:03:32.466Z,62.50
2023-04-08T18:08:54.563Z,62.45
2023-04-08T18:14:16.597Z,62.89
2023-04-08T18:19:38.314Z,62.93
2023-04-08T18:25:00.135Z,63.32
2023-04-08T18:30:21.941Z,62.53
2023-04-08T18:35:43.710Z,62.49
2023-04-08T18:41:05.748Z,63.09
2023-04-08T18:46:27.594Z,64.03
2023-04-08T18:51:59.430Z,64.88
2023-04-08T18:57:23.463Z,64.38
2023-04-08T19:02:45.255Z,64.65
2023-04-08T19:08:07.026Z,63.98
2023-04-08T19:13:29.060Z,64.16
2023-04-08T19:18:50.997Z,65.51
2023-04-08T19:24:12.799Z,65.51
2023-04-08T19:29:34.699Z,66.14
2023-04-08T19:34:56.462Z,65.61
2023-04-08T19:40:19.410Z,66.10
2023-04-08T19:45:41.364Z,65.13
2023-04-08T19:51:03.654Z,65.26
2023-04-08T19:56:25.758Z,65.44
2023-04-08T20:01:47.597Z,66.24
2023-04-08T20:07:09.695Z,65.87
2023-04-08T20:12:31.358Z,66.59
2023-04-08T20:17:53.800Z,66.77
2023-04-08T20:23:17.333Z,66.75
2023-04-08T20:28:40.104Z,66.73
2023-04-08T20:34:03.296Z,65.81
2023-04-08T20:39:29.699Z,66.51
2023-04-08T20:44:51.878Z,67.01
2023-04-08T20:50:13.794Z,67.46
2023-04-08T20:55:35.621Z,67.25
2023-04-08T21:00:57.757Z,67.23
2023-04-08T21:06:20.467Z,67.40
2023-04-08T21:11:42.259Z,67.51
2023-04-08T21:17:04.061Z,67.89
2023-04-08T21:22:25.825Z,67.74
2023-04-08T21:27:47.608Z,67.95
2023-04-08T21:33:09.413Z,68.34
2023-04-08T21:38:31.195Z,68.85
2023-04-08T21:43:53.497Z,69.79
2023-04-08T21:49:15.548Z,71.08
2023-04-08T21:54:37.289Z,70.52
2023-04-08T21:59:59.075Z,71.13
2023-04-08T22:05:20.930Z,71.03
2023-04-08T22:10:42.825Z,71.09
2023-04-08T22:16:04.667Z,72.09
2023-04-08T22:21:26.475Z,71.48
2023-04-08T22:26:48.181Z,71.94
2023-04-08T22:32:09.907Z,71.78
2023-04-08T22:37:32.318Z,71.60
2023-04-08T22:42:54.031Z,71.24
2023-04-08T22:48:15.824Z,70.77
2023-04-08T22:53:37.715Z,70.99
2023-04-08T22:58:59.466Z,71.62
2023-04-08T23:04:21.147Z,72.11
2023-04-08T23:09:42.848Z,72.15
2023-04-08T23:15:04.978Z,71.86
2023-04-08T23:20:26.659Z,71.87
2023-04-08T23:25:48.315Z,72.00
2023-04-08T23:31:10.218Z,72.48
2023-04-08T23:36:31.943Z,72.81
2023-04-08T23:41:53.620Z,72.96
2023-04-08T23:47:15.677Z,74.17
2023-04-08T23:52:37.368Z,73.78
2023-04-08T23:57:59.150Z,73.74
